KGAG

Gage Airport

Gage, Oklahoma, USA
METAR KGAG 250053Z AUTO 17011KT 10SM CLR 29/17 A2993 RMK AO2 SLP109 T02940172
Observed Flight Rules
May-25 @ 00:53 UTC (24 minutes ago) Visual Flight Rules
Wind Visibility Clouds
170° at 11 knots 10 miles
  • Clear skies
Temperatures Readings
Current 29°C / 84°F
Dewpoint 17°C / 63°F
Humidity 48%
Altimeter 29.93" Hg
Pressure 1010.9 hPa
Elevation 668
METAR KGAG 250053Z AUTO 17011KT 10SM CLR 29/17 A2993 RMK AO2 SLP109 T02940172
Observed Flight Rules
May-25 @ 00:53 UTC
(24 minutes ago)
VFR
Wind Visibility
170° at 11 knots 10 miles
Clouds
  • Clear skies
Temperature Dewpoint
29°C / 84°F 17°C / 63°F
Humidity Altimeter Pressure
48% 29.93" Hg 1010.9 hPa